Time;durP1;ratioP1;P1;durP2;ratioP2;P2;SDS_P1;SDS_P2;PMS_P1;PMS_P2;Temp;Humidity;BMP_temperature;BMP_pressure;BME280_temperature;BME280_humidity;BME280_pressure;Samples;Min_cycle;Max_cycle;Signal;HPM_P1;HPM_P2
2022/02/13 00:01:22;;;;;;;;;;;;;;;-139.48;100.00;61774.03;5033717;28;20049;-73
2022/02/13 00:04:06;;;;;;;21.80;8.90;;;;;;;-139.48;100.00;61774.03;5033184;28;20411;-73
2022/02/13 00:06:49;;;;;;;24.10;11.20;;;;;;;-139.48;100.00;61774.03;5018014;28;20099;-73
2022/02/13 00:09:34;;;;;;;28.85;12.95;;;;;;;-139.48;100.00;61774.03;5033149;28;20099;-73
2022/02/13 00:12:18;;;;;;;26.35;12.95;;;;;;;-139.48;100.00;61774.03;5018247;28;20064;-73
2022/02/13 00:15:01;;;;;;;;;;;;;;;-139.48;100.00;61774.03;5018283;28;20049;-74
2022/02/13 00:17:46;;;;;;;26.67;12.27;;;;;;;-139.48;100.00;61774.03;5031253;28;19920;-73
2022/02/13 00:20:30;;;;;;;21.65;10.23;;;;;;;-139.48;100.00;61774.03;5032933;28;20091;-73
2022/02/13 00:23:14;;;;;;;23.17;11.52;;;;;;;-139.48;100.00;61774.03;5017743;28;20083;-73
2022/02/13 00:25:58;;;;;;;;;;;;;;;-139.48;100.00;61774.03;4990558;28;20432;-73
2022/02/13 00:28:42;;;;;;;23.02;11.32;;;;;;;-139.48;100.00;61774.03;5031864;28;20482;-73
2022/02/13 00:31:26;;;;;;;23.55;11.70;;;;;;;-139.48;100.00;61774.03;5017956;28;20102;-73
2022/02/13 00:34:10;;;;;;;;;;;;;;;-139.48;100.00;61774.03;5018383;28;20048;-73
2022/02/13 00:36:54;;;;;;;30.83;11.43;;;;;;;-139.48;100.00;61774.03;5031955;28;19963;-73
2022/02/13 00:39:38;;;;;;;;;;;;;;;-139.48;100.00;61774.03;5004035;28;20064;-74
2022/02/13 00:42:22;;;;;;;18.58;10.07;;;;;;;-139.48;100.00;61774.03;5031788;28;19975;-73
2022/02/13 00:45:06;;;;;;;;;;;;;;;-139.48;100.00;61774.03;5018199;28;20160;-73
2022/02/13 00:47:50;;;;;;;;;;;;;;;-139.48;100.00;61774.03;5031924;28;20514;-74
2022/02/13 00:50:34;;;;;;;22.60;10.48;;;;;;;-139.48;100.00;61774.03;5032778;28;20016;-73
2022/02/13 00:53:18;;;;;;;19.40;10.93;;;;;;;-139.48;100.00;61774.03;5017443;28;20049;-73
2022/02/13 00:56:02;;;;;;;20.80;11.40;;;;;;;-139.48;100.00;61774.03;5003775;28;20076;-73
2022/02/13 00:58:46;;;;;;;26.77;11.70;;;;;;;-139.48;100.00;61774.03;5003733;28;20056;-74
2022/02/13 01:01:30;;;;;;;23.23;11.15;;;;;;;-139.48;100.00;61774.03;5017338;28;20508;-73
2022/02/13 01:04:14;;;;;;;24.35;11.60;;;;;;;-139.48;100.00;61774.03;5017701;28;20056;-73
2022/02/13 01:06:58;;;;;;;23.35;11.85;;;;;;;-139.48;100.00;61774.03;5017525;28;20053;-74
2022/02/13 01:09:42;;;;;;;;;;;;;;;-139.48;100.00;61774.03;5017890;28;20528;-73
2022/02/13 01:12:26;;;;;;;26.00;12.52;;;;;;;-139.48;100.00;61774.03;5031516;28;19923;-73
2022/02/13 01:15:10;;;;;;;27.95;13.65;;;;;;;-139.48;100.00;61774.03;5032462;28;20140;-73
2022/02/13 01:17:54;;;;;;;;;;;;;;;-139.48;100.00;61774.03;5017644;28;20095;-73
2022/02/13 01:20:39;;;;;;;28.73;14.23;;;;;;;-139.48;100.00;61774.03;5017825;28;19920;-73
2022/02/13 01:23:23;;;;;;;19.70;11.30;;;;;;;-139.48;100.00;61774.03;5017153;28;20116;-73
2022/02/13 01:26:07;;;;;;;27.73;13.43;;;;;;;-139.48;100.00;61774.03;5032133;28;20057;-73
2022/02/13 01:28:50;;;;;;;;;;;;;;;-139.48;100.00;61774.03;5018674;28;20049;-73
2022/02/13 01:31:36;;;;;;;29.05;14.40;;;;;;;-139.48;100.00;61774.03;5034763;28;20008;-73
2022/02/13 01:34:20;;;;;;;33.05;16.50;;;;;;;-139.48;100.00;61774.03;5035648;28;20485;-73
2022/02/13 01:37:04;;;;;;;;;;;;;;;-139.48;100.00;61774.03;5021588;28;20456;-73
2022/02/13 01:39:47;;;;;;;24.52;11.52;;;;;;;-139.48;100.00;61774.03;5034456;28;19923;-73
2022/02/13 01:42:31;;;;;;;;;;;;;;;-139.48;100.00;61774.03;5047015;22;21667;-73
2022/02/13 01:45:15;;;;;;;21.35;12.02;;;;;;;-139.48;100.00;61774.03;5035361;28;19967;-74
2022/02/13 01:47:59;;;;;;;26.80;12.20;;;;;;;-139.48;100.00;61774.03;5020861;28;20114;-74
2022/02/13 01:50:43;;;;;;;;;;;;;;;-139.48;100.00;61774.03;5035829;28;20056;-74
2022/02/13 01:53:28;;;;;;;21.73;9.88;;;;;;;-139.48;100.00;61774.03;5035299;28;20395;-75
2022/02/13 01:56:12;;;;;;;21.23;11.38;;;;;;;-139.48;100.00;61774.03;5020499;28;20074;-75
2022/02/13 01:58:56;;;;;;;23.10;11.63;;;;;;;-139.48;100.00;61774.03;5020217;28;20492;-75
2022/02/13 02:01:40;;;;;;;;;;;;;;;-139.48;100.00;61774.03;5020681;28;20103;-75
2022/02/13 02:04:25;;;;;;;;;;;;;;;-139.48;100.00;61774.03;5020386;28;19976;-74
2022/02/13 02:07:08;;;;;;;20.80;11.48;;;;;;;-139.48;100.00;61774.03;5020390;28;19920;-74
2022/02/13 02:09:52;;;;;;;;;;;;;;;-139.48;100.00;61774.03;5020871;28;20052;-75
2022/02/13 02:12:37;;;;;;;27.75;11.95;;;;;;;-139.48;100.00;61774.03;5020045;28;19920;-75
2022/02/13 02:15:21;;;;;;;27.88;12.40;;;;;;;-139.48;100.00;61774.03;5020015;28;20409;-74
2022/02/13 02:18:05;;;;;;;;;;;;;;;-139.48;100.00;61774.03;5020202;28;20471;-74
2022/02/13 02:20:49;;;;;;;24.73;11.27;;;;;;;-139.48;100.00;61774.03;5019951;28;19919;-75
2022/02/13 02:23:34;;;;;;;22.05;11.95;;;;;;;-139.48;100.00;61774.03;5019622;28;20136;-74
2022/02/13 02:26:19;;;;;;;19.88;11.13;;;;;;;-139.48;100.00;61774.03;5034840;28;20052;-74
2022/02/13 02:29:03;;;;;;;25.33;13.20;;;;;;;-139.48;100.00;61774.03;5034560;28;20084;-74
2022/02/13 02:31:47;;;;;;;27.67;12.50;;;;;;;-139.48;100.00;61774.03;5019847;28;20044;-74
2022/02/13 02:34:31;;;;;;;22.30;11.52;;;;;;;-139.48;100.00;61774.03;5005732;28;20122;-74
2022/02/13 02:37:15;;;;;;;22.40;11.50;;;;;;;-139.48;100.00;61774.03;5034687;28;20122;-74
2022/02/13 02:39:59;;;;;;;23.75;10.88;;;;;;;-139.48;100.00;61774.03;5033975;28;20055;-74
2022/02/13 02:42:45;;;;;;;22.20;11.32;;;;;;;-139.48;100.00;61774.03;5019359;28;20401;-72
2022/02/13 02:45:28;;;;;;;23.65;12.85;;;;;;;-139.48;100.00;61774.03;5019389;28;20060;-74
2022/02/13 02:48:12;;;;;;;26.05;11.77;;;;;;;-139.48;100.00;61774.03;5019367;28;20055;-74
2022/02/13 02:50:56;;;;;;;22.42;11.27;;;;;;;-139.48;100.00;61774.03;5005403;28;20051;-75
2022/02/13 02:53:42;;;;;;;;;;;;;;;-139.48;100.00;61774.03;5034551;28;20048;-74
2022/02/13 02:56:26;;;;;;;24.92;11.07;;;;;;;-139.48;100.00;61774.03;5019646;28;19977;-74
2022/02/13 02:59:10;;;;;;;26.90;12.05;;;;;;;-139.48;100.00;61774.03;5019142;28;20099;-74
2022/02/13 03:01:53;;;;;;;;;;;;;;;-139.48;100.00;61774.03;5019448;28;20122;-74
2022/02/13 03:04:37;;;;;;;26.27;11.30;;;;;;;-139.48;100.00;61774.03;5034224;28;19949;-74
2022/02/13 03:07:24;;;;;;;26.75;13.15;;;;;;;-139.48;100.00;61774.03;5018876;28;20467;-74
2022/02/13 03:10:08;;;;;;;24.55;12.63;;;;;;;-139.48;100.00;61774.03;5033822;28;20052;-74
2022/02/13 03:12:52;;;;;;;;;;;;;;;-139.48;100.00;61774.03;5019267;28;20056;-74
2022/02/13 03:15:36;;;;;;;35.05;17.15;;;;;;;-139.48;100.00;61774.03;5033954;28;20327;-74
2022/02/13 03:18:20;;;;;;;37.30;16.98;;;;;;;-139.48;100.00;61774.03;5018640;28;20107;-74
2022/02/13 03:21:04;;;;;;;34.97;17.80;;;;;;;-139.48;100.00;61774.03;5033539;28;20508;-74
2022/02/13 03:23:48;;;;;;;;;;;;;;;-139.48;100.00;61774.03;5033876;28;20520;-74
2022/02/13 03:26:33;;;;;;;32.95;15.45;;;;;;;-139.48;100.00;61774.03;5004869;28;19923;-75
2022/02/13 03:29:17;;;;;;;29.45;14.57;;;;;;;-139.48;100.00;61774.03;5033931;28;20064;-75
2022/02/13 03:32:01;;;;;;;;;;;;;;;-139.48;100.00;61774.03;5033922;28;20056;-74
2022/02/13 03:34:45;;;;;;;24.70;13.52;;;;;;;-139.48;100.00;61774.03;5004684;28;19935;-75
2022/02/13 03:37:29;;;;;;;34.05;15.15;;;;;;;-139.48;100.00;61774.03;5018370;28;20045;-74
2022/02/13 03:40:13;;;;;;;34.80;17.55;;;;;;;-139.48;100.00;61774.03;5033453;28;20057;-74
2022/02/13 03:42:57;;;;;;;30.48;16.60;;;;;;;-139.48;100.00;61774.03;5033215;28;20524;-75
2022/02/13 03:45:41;;;;;;;35.03;17.42;;;;;;;-139.48;100.00;61774.03;5033315;28;20040;-75
2022/02/13 03:48:25;;;;;;;;;;;;;;;-139.48;100.00;61774.03;5019021;28;20528;-75
2022/02/13 03:51:09;;;;;;;37.20;17.95;;;;;;;-139.48;100.00;61774.03;5033084;28;20388;-75
2022/02/13 03:53:52;;;;;;;;;;;;;;;-139.48;100.00;61774.03;5017725;28;20047;-73
2022/02/13 03:56:36;;;;;;;33.20;17.70;;;;;;;-139.48;100.00;61774.03;5018006;28;19920;-75
2022/02/13 03:59:20;;;;;;;;;;;;;;;-139.48;100.00;61774.03;5018515;28;20057;-74
2022/02/13 04:02:04;;;;;;;28.98;16.15;;;;;;;-139.48;100.00;61774.03;5017938;28;19936;-74
2022/02/13 04:04:49;;;;;;;24.58;14.50;;;;;;;-139.48;100.00;61774.03;5004081;28;20111;-74
2022/02/13 04:07:35;;;;;;;28.83;14.60;;;;;;;-139.48;100.00;61774.03;5004183;28;20115;-75
2022/02/13 04:10:19;;;;;;;27.63;14.15;;;;;;;-139.48;100.00;61774.03;5017934;28;20084;-74
2022/02/13 04:13:03;;;;;;;24.73;14.00;;;;;;;-139.48;100.00;61774.03;5017844;28;20060;-75
2022/02/13 04:15:47;;;;;;;25.73;14.00;;;;;;;-139.48;100.00;61774.03;5004235;28;20052;-74
2022/02/13 04:18:31;;;;;;;30.98;14.38;;;;;;;-139.48;100.00;61774.03;5032560;28;20088;-75
2022/02/13 04:21:15;;;;;;;;;;;;;;;-139.48;100.00;61774.03;5033263;28;20044;-75
2022/02/13 04:23:58;;;;;;;27.85;14.80;;;;;;;-139.48;100.00;61774.03;5032383;28;20004;-75
2022/02/13 04:26:43;;;;;;;;;;;;;;;-139.48;100.00;61774.03;5032930;28;20059;-75
2022/02/13 04:29:27;;;;;;;26.17;14.35;;;;;;;-139.48;100.00;61774.03;5017950;28;20277;-75
2022/02/13 04:32:11;;;;;;;;;;;;;;;-139.48;100.00;61774.03;5033100;28;20218;-75
2022/02/13 04:34:55;;;;;;;29.98;16.17;;;;;;;-139.48;100.00;61774.03;5017703;28;19920;-74
2022/02/13 04:37:39;;;;;;;27.48;14.52;;;;;;;-139.48;100.00;61774.03;5032700;28;20409;-74
2022/02/13 04:40:23;;;;;;;;;;;;;;;-139.48;100.00;61774.03;5018117;28;20140;-74
2022/02/13 04:43:07;;;;;;;31.23;14.77;;;;;;;-139.48;100.00;61774.03;5017285;28;19963;-75
2022/02/13 04:45:51;;;;;;;27.83;15.95;;;;;;;-139.48;100.00;61774.03;5003902;28;20100;-75
2022/02/13 04:48:34;;;;;;;35.47;16.55;;;;;;;-139.48;100.00;61774.03;5032308;28;20052;-74
2022/02/13 04:51:18;;;;;;;;;;;;;;;-139.48;100.00;61774.03;5017661;28;20107;-75
2022/02/13 04:54:02;;;;;;;30.23;16.75;;;;;;;-139.48;100.00;61774.03;5032608;28;19983;-75
2022/02/13 04:56:46;;;;;;;33.38;16.15;;;;;;;-139.48;100.00;61774.03;5017570;28;20049;-75
2022/02/13 04:59:35;;;;;;;28.70;15.60;;;;;;;-139.48;100.00;61774.03;5003598;28;20055;-74
2022/02/13 05:02:20;;;;;;;32.85;16.73;;;;;;;-139.48;100.00;61774.03;5018203;28;20048;-75
2022/02/13 05:05:04;;;;;;;30.65;16.42;;;;;;;-139.48;100.00;61774.03;5020804;28;20055;-74
2022/02/13 05:07:49;;;;;;;31.25;15.32;;;;;;;-139.48;100.00;61774.03;5036075;28;20470;-74
2022/02/13 05:10:32;;;;;;;28.67;15.18;;;;;;;-139.48;100.00;61774.03;5036417;28;20052;-74
2022/02/13 05:13:17;;;;;;;32.58;16.85;;;;;;;-139.48;100.00;61774.03;5020983;28;20051;-74
2022/02/13 05:16:00;;;;;;;31.52;17.30;;;;;;;-139.48;100.00;61774.03;5007673;28;20508;-75
2022/02/13 05:18:44;;;;;;;28.08;16.10;;;;;;;-139.48;100.00;61774.03;5021221;28;20072;-75
2022/02/13 05:21:28;;;;;;;30.63;15.98;;;;;;;-139.48;100.00;61774.03;5021074;28;20508;-74
2022/02/13 05:24:12;;;;;;;;;;;;;;;-139.48;100.00;61774.03;5007389;28;20160;-74
2022/02/13 05:26:56;;;;;;;26.98;15.63;;;;;;;-139.48;100.00;61774.03;5035881;28;19967;-74
2022/02/13 05:29:40;;;;;;;;;;;;;;;-139.48;100.00;61774.03;5021198;28;20048;-74
2022/02/13 05:32:24;;;;;;;28.08;15.52;;;;;;;-139.48;100.00;61774.03;5020723;28;19920;-73
2022/02/13 05:35:08;;;;;;;;;;;;;;;-139.48;100.00;61774.03;5021151;28;20047;-74
2022/02/13 05:37:53;;;;;;;27.10;15.35;;;;;;;-139.48;100.00;61774.03;5020956;28;19924;-75
2022/02/13 05:40:36;;;;;;;;;;;;;;;-139.48;100.00;61774.03;5036283;28;20059;-74
2022/02/13 05:43:20;;;;;;;26.10;14.38;;;;;;;-139.48;100.00;61774.03;5035454;28;19963;-74
2022/02/13 05:46:04;;;;;;;28.10;14.43;;;;;;;-139.48;100.00;61774.03;5020666;28;20099;-74
2022/02/13 05:48:48;;;;;;;30.92;15.65;;;;;;;-139.48;100.00;61774.03;5020936;28;20512;-74
2022/02/13 05:51:32;;;;;;;;;;;;;;;-139.48;100.00;61774.03;5021111;28;20048;-75
2022/02/13 05:54:16;;;;;;;28.33;13.65;;;;;;;-139.48;100.00;61774.03;5020514;28;20237;-75
2022/02/13 05:57:00;;;;;;;26.48;13.85;;;;;;;-139.48;100.00;61774.03;5020644;28;20450;-75
2022/02/13 05:59:44;;;;;;;27.40;15.18;;;;;;;-139.48;100.00;61774.03;5020830;28;20128;-75
2022/02/13 06:02:28;;;;;;;24.80;14.25;;;;;;;-139.48;100.00;61774.03;5020360;28;20125;-74
2022/02/13 06:05:12;;;;;;;27.98;14.85;;;;;;;-139.48;100.00;61774.03;5020381;28;20125;-75
2022/02/13 06:07:56;;;;;;;26.75;14.93;;;;;;;-139.48;100.00;61774.03;5020340;28;20560;-75
2022/02/13 06:10:39;;;;;;;26.05;14.77;;;;;;;-139.48;100.00;61774.03;5006445;28;20527;-75
2022/02/13 06:13:24;;;;;;;30.77;14.90;;;;;;;-139.48;100.00;61774.03;5020101;28;20500;-75
2022/02/13 06:16:08;;;;;;;;;;;;;;;-139.48;100.00;61774.03;5005858;28;20140;-74
2022/02/13 06:18:52;;;;;;;;;;;;;;;-139.48;100.00;61774.03;5035467;28;20008;-74
2022/02/13 06:21:36;;;;;;;26.05;13.25;;;;;;;-139.48;100.00;61774.03;5035212;28;20415;-74
2022/02/13 06:24:20;;;;;;;;;;;;;;;-139.48;100.00;61774.03;5006215;28;20049;-75
2022/02/13 06:27:04;;;;;;;21.75;13.18;;;;;;;-139.48;100.00;61774.03;5020339;28;19920;-74
2022/02/13 06:29:49;;;;;;;22.60;12.38;;;;;;;-139.48;100.00;61774.03;5035030;28;20366;-74
2022/02/13 06:32:33;;;;;;;21.00;12.70;;;;;;;-139.48;100.00;61774.03;5034911;28;20068;-75
2022/02/13 06:35:18;;;;;;;24.13;13.60;;;;;;;-139.48;100.00;61774.03;5006004;28;20099;-75
2022/02/13 06:38:03;;;;;;;24.48;12.85;;;;;;;-139.48;100.00;61774.03;5019481;28;20052;-75
2022/02/13 06:40:47;;;;;;;24.50;14.60;;;;;;;-139.48;100.00;61774.03;5019723;28;20048;-75
2022/02/13 06:43:32;;;;;;;;;;;;;;;-139.48;100.00;61774.03;5034887;28;20047;-75
2022/02/13 06:46:16;;;;;;;20.42;11.93;;;;;;;-139.48;100.00;61774.03;5019726;28;19920;-74
2022/02/13 06:49:00;;;;;;;25.55;14.43;;;;;;;-139.48;100.00;61774.03;5019694;28;20048;-74
2022/02/13 06:51:44;;;;;;;;;;;;;;;-139.48;100.00;61774.03;5019864;28;20044;-74
2022/02/13 06:54:28;;;;;;;24.67;13.55;;;;;;;-139.48;100.00;61774.03;5019135;28;19947;-74
2022/02/13 06:57:12;;;;;;;26.00;13.75;;;;;;;-139.48;100.00;61774.03;5034349;28;20095;-75
2022/02/13 06:59:56;;;;;;;25.90;13.90;;;;;;;-139.48;100.00;61774.03;5019231;28;20051;-76
2022/02/13 07:02:40;;;;;;;25.73;15.00;;;;;;;-139.48;100.00;61774.03;5005409;28;20408;-75
2022/02/13 07:05:24;;;;;;;31.65;16.27;;;;;;;-139.48;100.00;61774.03;5018999;28;20092;-75
2022/02/13 07:08:07;;;;;;;;;;;;;;;-139.48;100.00;61774.03;5034468;28;20138;-74
2022/02/13 07:10:51;;;;;;;20.90;10.82;;;;;;;-139.48;100.00;61774.03;5005382;28;19919;-75
2022/02/13 07:13:35;;;;;;;;;;;;;;;-139.48;100.00;61774.03;5019326;28;20088;-75
2022/02/13 07:16:19;;;;;;;22.60;13.07;;;;;;;-139.48;100.00;61774.03;5019165;28;19963;-75
2022/02/13 07:19:03;;;;;;;20.15;12.98;;;;;;;-139.48;100.00;61774.03;5005251;28;20473;-75
2022/02/13 07:21:47;;;;;;;22.48;13.32;;;;;;;-139.48;100.00;61774.03;5033918;28;20052;-75
2022/02/13 07:24:34;;;;;;;;;;;;;;;-139.48;100.00;61774.03;5019148;28;20064;-75
2022/02/13 07:27:18;;;;;;;26.63;13.43;;;;;;;-139.48;100.00;61774.03;5033985;28;20421;-74
2022/02/13 07:30:06;;;;;;;29.33;15.02;;;;;;;-139.48;100.00;61774.03;5018778;28;20048;-75
2022/02/13 07:32:50;;;;;;;30.30;14.75;;;;;;;-139.48;100.00;61774.03;5033701;28;20083;-75
2022/02/13 07:35:35;;;;;;;28.77;15.25;;;;;;;-139.48;100.00;61774.03;5018517;28;20067;-75
2022/02/13 07:38:19;;;;;;;24.42;14.38;;;;;;;-139.48;100.00;61774.03;5018726;28;20404;-74
2022/02/13 07:41:03;;;;;;;;;;;;;;;-139.48;100.00;61774.03;5018917;28;20052;-75
2022/02/13 07:43:47;;;;;;;20.85;11.02;;;;;;;-139.48;100.00;61774.03;5018077;28;19975;-75
2022/02/13 07:46:31;;;;;;;;;;;;;;;-139.48;100.00;61774.03;5019237;28;20056;-75
2022/02/13 07:49:15;;;;;;;26.50;15.80;;;;;;;-139.48;100.00;61774.03;5018778;28;19920;-75
2022/02/13 07:51:58;;;;;;;30.40;15.43;;;;;;;-139.48;100.00;61774.03;5041098;22;20055;-72
2022/02/13 07:54:42;;;;;;;25.65;16.05;;;;;;;-139.48;100.00;61774.03;5033028;28;20563;-71
2022/02/13 07:57:26;;;;;;;30.75;16.77;;;;;;;-139.48;100.00;61774.03;5018193;28;20048;-72
2022/02/13 08:00:11;;;;;;;29.75;15.98;;;;;;;-139.48;100.00;61774.03;5017982;28;20559;-71
2022/02/13 08:02:55;;;;;;;30.15;16.52;;;;;;;-139.48;100.00;61774.03;5032942;28;20103;-72
2022/02/13 08:05:39;;;;;;;;;;;;;;;-139.48;100.00;61774.03;5018436;28;20072;-72
2022/02/13 08:08:23;;;;;;;31.10;16.38;;;;;;;-139.48;100.00;61774.03;5033173;28;19963;-70
2022/02/13 08:11:07;;;;;;;26.30;14.55;;;;;;;-139.48;100.00;61774.03;5032891;28;20048;-72
2022/02/13 08:13:51;;;;;;;;;;;;;;;-139.48;100.00;61774.03;5018558;28;20079;-72
2022/02/13 08:16:35;;;;;;;26.45;15.57;;;;;;;-139.48;100.00;61774.03;5017758;28;19920;-70
2022/02/13 08:19:19;;;;;;;26.23;15.43;;;;;;;-139.48;100.00;61774.03;5004206;28;20140;-70
2022/02/13 08:22:03;;;;;;;;;;;;;;;-139.48;100.00;61774.03;5033309;28;20056;-70
2022/02/13 08:24:47;;;;;;;24.23;15.00;;;;;;;-139.48;100.00;61774.03;5017580;28;19963;-69
2022/02/13 08:27:32;;;;;;;22.83;13.57;;;;;;;-139.48;100.00;61774.03;5017694;28;20417;-71
2022/02/13 08:30:16;;;;;;;27.58;14.73;;;;;;;-139.48;100.00;61774.03;5017777;28;20048;-70
2022/02/13 08:33:01;;;;;;;;;;;;;;;-139.48;100.00;61774.03;5033214;28;20044;-71
2022/02/13 08:35:45;;;;;;;17.63;12.07;;;;;;;-139.48;100.00;61774.03;5032683;28;19955;-72
2022/02/13 08:38:29;;;;;;;24.80;14.20;;;;;;;-139.48;100.00;61774.03;5017189;28;20056;-72
2022/02/13 08:41:13;;;;;;;;;;;;;;;-139.48;100.00;61774.03;5032779;28;20052;-71
2022/02/13 08:43:57;;;;;;;24.17;14.35;;;;;;;-139.48;100.00;61774.03;5032628;28;19982;-71
2022/02/13 08:46:41;;;;;;;;;;;;;;;-139.48;100.00;61774.03;5004222;28;20125;-71
2022/02/13 08:49:25;;;;;;;18.83;12.48;;;;;;;-139.48;100.00;61774.03;5032647;28;19920;-72
2022/02/13 08:52:09;;;;;;;23.25;13.63;;;;;;;-139.48;100.00;61774.03;5003486;28;20516;-73
2022/02/13 08:54:53;;;;;;;22.50;14.30;;;;;;;-139.48;100.00;61774.03;5032866;28;20136;-71
2022/02/13 08:57:36;;;;;;;;;;;;;;;-139.48;100.00;61774.03;5004213;28;20063;-72
2022/02/13 09:00:20;;;;;;;25.77;12.63;;;;;;;-139.48;100.00;61774.03;5017292;28;19940;-72
2022/02/13 09:03:04;;;;;;;;;;;;;;;-139.48;100.00;61774.03;5032682;28;20297;-71
2022/02/13 09:05:48;;;;;;;22.52;12.75;;;;;;;-139.48;100.00;61774.03;5017338;28;19923;-72
2022/02/13 09:08:32;;;;;;;96.28;15.35;;;;;;;-139.48;100.00;61774.03;5032277;28;20049;-71
2022/02/13 09:11:16;;;;;;;21.55;12.65;;;;;;;-139.48;100.00;61774.03;5003491;28;20501;-72
2022/02/13 09:14:03;;;;;;;22.63;13.05;;;;;;;-139.48;100.00;61774.03;5017415;28;20053;-72
2022/02/13 09:16:47;;;;;;;20.75;11.20;;;;;;;-139.48;100.00;61774.03;5032365;28;20049;-72
2022/02/13 09:19:31;;;;;;;;;;;;;;;-139.48;100.00;61774.03;5032607;28;20099;-73
2022/02/13 09:22:15;;;;;;;20.83;10.67;;;;;;;-139.48;100.00;61774.03;5003086;28;19919;-73
2022/02/13 09:24:59;;;;;;;18.20;11.18;;;;;;;-139.48;100.00;61774.03;5032320;28;20290;-74
2022/02/13 09:27:42;;;;;;;15.60;11.27;;;;;;;-139.48;100.00;61774.03;5017472;28;20393;-72
2022/02/13 09:30:27;;;;;;;19.27;11.40;;;;;;;-139.48;100.00;61774.03;5017299;28;20481;-74
2022/02/13 09:33:10;;;;;;;17.77;11.43;;;;;;;-139.48;100.00;61774.03;5032195;28;20052;-74
2022/02/13 09:35:54;;;;;;;18.77;11.77;;;;;;;-139.48;100.00;61774.03;5017174;28;20048;-74
2022/02/13 09:38:38;;;;;;;16.25;10.98;;;;;;;-139.48;100.00;61774.03;5032078;28;20512;-74
2022/02/13 09:41:22;;;;;;;15.73;11.25;;;;;;;-139.48;100.00;61774.03;5017319;28;20056;-74
2022/02/13 09:44:08;;;;;;;18.08;11.63;;;;;;;-139.48;100.00;61774.03;5017453;28;20114;-74
2022/02/13 09:46:53;;;;;;;21.27;11.75;;;;;;;-139.48;100.00;61774.03;5017943;28;20386;-74
2022/02/13 09:49:36;;;;;;;18.67;11.55;;;;;;;-139.48;100.00;61774.03;5017762;28;20409;-74
2022/02/13 09:52:20;;;;;;;;;;;;;;;-139.48;100.00;61774.03;5006435;28;20535;-74
2022/02/13 09:55:05;;;;;;;16.47;11.57;;;;;;;-139.48;100.00;61774.03;5035402;28;19966;-74
2022/02/13 09:58:04;;;;;;;13.80;11.35;;;;;;;-139.48;100.00;61774.03;5020456;28;20048;-73
2022/02/13 10:01:06;;;;;;;14.50;10.60;;;;;;;-139.48;100.00;61774.03;5022413;28;20044;-74
2022/02/13 10:03:51;;;;;;;18.80;11.35;;;;;;;-139.48;100.00;61774.03;5034973;28;20127;-73
2022/02/13 10:06:36;;;;;;;17.48;11.20;;;;;;;-139.48;100.00;61774.03;5006573;28;20068;-74
2022/02/13 10:09:36;;;;;;;12.93;10.75;;;;;;;-139.48;100.00;61774.03;5006449;28;20072;-74
2022/02/13 10:12:42;;;;;;;12.55;10.80;;;;;;;-139.48;100.00;61774.03;5019951;28;20052;-74
2022/02/13 10:15:33;;;;;;;15.82;11.25;;;;;;;-139.48;100.00;61774.03;5034915;28;20041;-74
2022/02/13 10:18:16;;;;;;;17.48;11.32;;;;;;;-139.48;100.00;61774.03;5020000;28;20083;-72
2022/02/13 10:21:00;;;;;;;;;;;;;;;-139.48;100.00;61774.03;5035392;28;20056;-74
2022/02/13 10:23:44;;;;;;;12.70;10.63;;;;;;;-139.48;100.00;61774.03;5019651;28;20375;-73
2022/02/13 10:26:28;;;;;;;15.07;10.63;;;;;;;-139.48;100.00;61774.03;5019758;28;20048;-73
2022/02/13 10:29:12;;;;;;;;;;;;;;;-139.48;100.00;61774.03;5020344;28;20104;-74
2022/02/13 10:32:17;;;;;;;16.52;11.10;;;;;;;-139.48;100.00;61774.03;5005847;28;19963;-73
2022/02/13 10:35:10;;;;;;;12.25;10.52;;;;;;;-139.48;100.00;61774.03;5034805;28;20064;-74
2022/02/13 10:37:56;;;;;;;15.93;10.98;;;;;;;-139.48;100.00;61774.03;5034717;28;20056;-74
2022/02/13 10:40:40;;;;;;;18.80;11.60;;;;;;;-139.48;100.00;61774.03;5019519;28;20136;-74
2022/02/13 10:43:24;;;;;;;13.05;10.90;;;;;;;-139.48;100.00;61774.03;5034473;28;20512;-73
2022/02/13 10:46:18;;;;;;;16.58;10.88;;;;;;;-139.48;100.00;61774.03;5034637;28;20505;-73
2022/02/13 10:49:04;;;;;;;13.68;11.45;;;;;;;-139.48;100.00;61774.03;5019488;28;20048;-74
2022/02/13 10:51:49;;;;;;;13.02;10.57;;;;;;;-139.48;100.00;61774.03;5019135;28;20199;-73
2022/02/13 10:54:33;;;;;;;12.70;11.35;;;;;;;-139.48;100.00;61774.03;5019381;28;20100;-74
2022/02/13 10:57:17;;;;;;;15.88;11.43;;;;;;;-139.48;100.00;61774.03;5019087;28;20110;-74
2022/02/13 11:00:01;;;;;;;16.85;11.38;;;;;;;-139.48;100.00;61774.03;5019156;28;20067;-72
2022/02/13 11:02:46;;;;;;;13.13;11.05;;;;;;;-139.48;100.00;61774.03;5033755;28;20136;-73
2022/02/13 11:05:32;;;;;;;17.13;10.80;;;;;;;-139.48;100.00;61774.03;5034134;28;20048;-73
2022/02/13 11:08:17;;;;;;;13.60;10.77;;;;;;;-139.48;100.00;61774.03;5034343;28;20402;-73
2022/02/13 11:11:01;;;;;;;13.45;10.55;;;;;;;-139.48;100.00;61774.03;5019553;28;20115;-73
2022/02/13 11:13:46;;;;;;;14.15;10.70;;;;;;;-139.48;100.00;61774.03;5019074;28;21920;-73
2022/02/13 11:16:36;;;;;;;20.40;10.68;;;;;;;-139.48;100.00;61774.03;5033908;28;20527;-73
2022/02/13 11:19:21;;;;;;;16.48;11.45;;;;;;;-139.48;100.00;61774.03;5034278;28;20091;-73
2022/02/13 11:22:06;;;;;;;15.85;11.52;;;;;;;-139.48;100.00;61774.03;5018695;28;20048;-73
2022/02/13 11:24:51;;;;;;;14.32;10.68;;;;;;;-139.48;100.00;61774.03;5018919;28;20095;-73
2022/02/13 11:27:58;;;;;;;17.48;10.98;;;;;;;-139.48;100.00;61774.03;5034079;28;20052;-73
2022/02/13 11:30:43;;;;;;;15.50;11.13;;;;;;;-139.48;100.00;61774.03;5033863;28;20431;-71
2022/02/13 11:33:31;;;;;;;13.88;10.65;;;;;;;-139.48;100.00;61774.03;5033469;28;20052;-73
2022/02/13 11:36:15;;;;;;;13.32;10.32;;;;;;;-139.48;100.00;61774.03;5033750;28;20103;-73
2022/02/13 11:38:59;;;;;;;15.07;10.65;;;;;;;-139.48;100.00;61774.03;5033437;28;20142;-73
2022/02/13 11:41:49;;;;;;;14.15;10.57;;;;;;;-139.48;100.00;61774.03;5033613;28;20060;-72
2022/02/13 11:44:35;;;;;;;12.52;10.02;;;;;;;-139.48;100.00;61774.03;5033833;28;20117;-73
2022/02/13 11:47:19;;;;;;;15.05;10.77;;;;;;;-139.48;100.00;61774.03;5033249;28;20090;-72
2022/02/13 11:50:03;;;;;;;18.92;10.43;;;;;;;-139.48;100.00;61774.03;5033408;28;20106;-71
2022/02/13 11:52:57;;;;;;;;;;;;;;;-139.48;100.00;61774.03;5033839;28;20048;-72
2022/02/13 11:55:41;;;;;;;14.73;9.90;;;;;;;-139.48;100.00;61774.03;5033074;28;20300;-73
2022/02/13 11:58:34;;;;;;;14.80;10.68;;;;;;;-139.48;100.00;61774.03;5004457;28;20463;-72
2022/02/13 12:01:37;;;;;;;14.65;9.63;;;;;;;-139.48;100.00;61774.03;5018260;28;20048;-72
2022/02/13 12:04:22;;;;;;;15.85;9.88;;;;;;;-139.48;100.00;61774.03;5033277;28;20159;-73
2022/02/13 12:07:05;;;;;;;15.98;10.57;;;;;;;-139.48;100.00;61774.03;5018031;28;20414;-71
2022/02/13 12:09:49;;;;;;;;;;;;;;;-139.48;100.00;61774.03;5018533;28;20187;-72
2022/02/13 12:12:33;;;;;;;18.50;9.77;;;;;;;-139.48;100.00;61774.03;5032580;28;19920;-72
2022/02/13 12:15:17;;;;;;;;;;;;;;;-139.48;100.00;61774.03;5017927;28;20048;-72
2022/02/13 12:18:08;;;;;;;16.90;9.50;;;;;;;-139.48;100.00;61774.03;5017961;28;20352;-71
2022/02/13 12:21:03;;;;;;;15.38;9.43;;;;;;;-139.48;100.00;61774.03;5018007;28;20049;-72
2022/02/13 12:23:47;;;;;;;11.80;9.05;;;;;;;-139.48;100.00;61774.03;5032857;28;20053;-72
2022/02/13 12:26:31;;;;;;;14.60;8.43;;;;;;;-139.48;100.00;61774.03;5017993;28;20136;-72
2022/02/13 12:29:16;;;;;;;14.32;9.45;;;;;;;-139.48;100.00;61774.03;5003983;28;20068;-72
2022/02/13 12:32:11;;;;;;;14.35;8.93;;;;;;;-139.48;100.00;61774.03;5017852;28;20198;-72